sensor_id;sensor_type;location;lat;lon;timestamp;P1;durP1;ratioP1;P2;durP2;ratioP2
22138;SDS011;25815;52.582;13.408;2023-04-15T00:00:33;54.92;;;30.67;;
22138;SDS011;25815;52.582;13.408;2023-04-15T00:02:59;52.92;;;30.25;;
22138;SDS011;25815;52.582;13.408;2023-04-15T00:05:26;57.75;;;31.60;;
22138;SDS011;25815;52.582;13.408;2023-04-15T00:07:52;58.58;;;30.80;;
22138;SDS011;25815;52.582;13.408;2023-04-15T00:10:18;56.92;;;30.80;;
22138;SDS011;25815;52.582;13.408;2023-04-15T00:12:44;60.08;;;31.25;;
22138;SDS011;25815;52.582;13.408;2023-04-15T00:15:10;58.47;;;31.23;;
22138;SDS011;25815;52.582;13.408;2023-04-15T00:17:36;60.55;;;32.22;;
22138;SDS011;25815;52.582;13.408;2023-04-15T00:20:03;53.72;;;30.55;;
22138;SDS011;25815;52.582;13.408;2023-04-15T00:22:30;59.28;;;32.05;;
22138;SDS011;25815;52.582;13.408;2023-04-15T00:24:56;57.63;;;31.38;;
22138;SDS011;25815;52.582;13.408;2023-04-15T00:27:22;56.90;;;31.10;;
22138;SDS011;25815;52.582;13.408;2023-04-15T00:29:48;59.50;;;32.00;;
22138;SDS011;25815;52.582;13.408;2023-04-15T00:32:15;61.95;;;31.02;;
22138;SDS011;25815;52.582;13.408;2023-04-15T00:34:40;59.90;;;32.15;;
22138;SDS011;25815;52.582;13.408;2023-04-15T00:37:07;60.60;;;31.38;;
22138;SDS011;25815;52.582;13.408;2023-04-15T00:39:33;61.45;;;32.88;;
22138;SDS011;25815;52.582;13.408;2023-04-15T00:41:59;64.75;;;31.85;;
22138;SDS011;25815;52.582;13.408;2023-04-15T00:44:26;60.13;;;32.05;;
22138;SDS011;25815;52.582;13.408;2023-04-15T00:46:52;61.13;;;31.77;;
22138;SDS011;25815;52.582;13.408;2023-04-15T00:49:19;63.60;;;33.05;;
22138;SDS011;25815;52.582;13.408;2023-04-15T00:51:44;61.38;;;33.13;;
22138;SDS011;25815;52.582;13.408;2023-04-15T00:54:10;57.88;;;31.90;;
22138;SDS011;25815;52.582;13.408;2023-04-15T00:56:37;61.33;;;31.70;;
22138;SDS011;25815;52.582;13.408;2023-04-15T00:59:03;64.20;;;33.50;;
22138;SDS011;25815;52.582;13.408;2023-04-15T01:01:30;63.92;;;33.13;;
22138;SDS011;25815;52.582;13.408;2023-04-15T01:03:56;63.10;;;33.33;;
22138;SDS011;25815;52.582;13.408;2023-04-15T01:06:22;64.68;;;34.75;;
22138;SDS011;25815;52.582;13.408;2023-04-15T01:08:49;61.80;;;31.33;;
22138;SDS011;25815;52.582;13.408;2023-04-15T01:11:15;62.15;;;33.55;;
22138;SDS011;25815;52.582;13.408;2023-04-15T01:13:42;64.20;;;33.28;;
22138;SDS011;25815;52.582;13.408;2023-04-15T01:16:08;66.22;;;34.15;;
22138;SDS011;25815;52.582;13.408;2023-04-15T01:18:34;62.00;;;32.70;;
22138;SDS011;25815;52.582;13.408;2023-04-15T01:21:01;57.75;;;31.88;;
22138;SDS011;25815;52.582;13.408;2023-04-15T01:23:28;60.83;;;32.80;;
22138;SDS011;25815;52.582;13.408;2023-04-15T01:25:54;60.92;;;31.75;;
22138;SDS011;25815;52.582;13.408;2023-04-15T01:28:20;64.47;;;33.85;;
22138;SDS011;25815;52.582;13.408;2023-04-15T01:30:46;60.13;;;32.13;;
22138;SDS011;25815;52.582;13.408;2023-04-15T01:33:13;62.67;;;32.55;;
22138;SDS011;25815;52.582;13.408;2023-04-15T01:35:38;62.78;;;33.33;;
22138;SDS011;25815;52.582;13.408;2023-04-15T01:38:05;62.85;;;31.80;;
22138;SDS011;25815;52.582;13.408;2023-04-15T01:40:32;60.47;;;31.38;;
22138;SDS011;25815;52.582;13.408;2023-04-15T01:42:59;64.90;;;32.90;;
22138;SDS011;25815;52.582;13.408;2023-04-15T01:45:25;59.40;;;32.05;;
22138;SDS011;25815;52.582;13.408;2023-04-15T01:47:51;67.25;;;33.17;;
22138;SDS011;25815;52.582;13.408;2023-04-15T01:50:17;66.88;;;33.60;;
22138;SDS011;25815;52.582;13.408;2023-04-15T01:52:44;61.30;;;31.17;;
22138;SDS011;25815;52.582;13.408;2023-04-15T01:55:10;65.40;;;33.10;;
22138;SDS011;25815;52.582;13.408;2023-04-15T01:57:37;57.08;;;30.73;;
22138;SDS011;25815;52.582;13.408;2023-04-15T02:00:03;58.78;;;31.42;;
22138;SDS011;25815;52.582;13.408;2023-04-15T02:02:31;62.38;;;32.42;;
22138;SDS011;25815;52.582;13.408;2023-04-15T02:04:58;63.97;;;32.50;;
22138;SDS011;25815;52.582;13.408;2023-04-15T02:07:24;58.40;;;31.75;;
22138;SDS011;25815;52.582;13.408;2023-04-15T02:09:50;61.13;;;31.50;;
22138;SDS011;25815;52.582;13.408;2023-04-15T02:12:17;59.60;;;31.15;;
22138;SDS011;25815;52.582;13.408;2023-04-15T02:14:43;62.65;;;32.58;;
22138;SDS011;25815;52.582;13.408;2023-04-15T02:17:09;63.38;;;33.00;;
22138;SDS011;25815;52.582;13.408;2023-04-15T02:19:35;63.28;;;32.13;;
22138;SDS011;25815;52.582;13.408;2023-04-15T02:22:01;58.65;;;31.38;;
22138;SDS011;25815;52.582;13.408;2023-04-15T02:24:27;53.85;;;30.48;;
22138;SDS011;25815;52.582;13.408;2023-04-15T02:26:53;60.33;;;31.02;;
22138;SDS011;25815;52.582;13.408;2023-04-15T02:29:19;61.60;;;31.85;;
22138;SDS011;25815;52.582;13.408;2023-04-15T02:31:46;63.17;;;31.80;;
22138;SDS011;25815;52.582;13.408;2023-04-15T02:34:12;56.80;;;29.75;;
22138;SDS011;25815;52.582;13.408;2023-04-15T02:36:38;58.20;;;29.40;;
22138;SDS011;25815;52.582;13.408;2023-04-15T02:39:05;59.60;;;31.27;;
22138;SDS011;25815;52.582;13.408;2023-04-15T02:41:31;60.33;;;31.23;;
22138;SDS011;25815;52.582;13.408;2023-04-15T02:43:57;57.90;;;29.80;;
22138;SDS011;25815;52.582;13.408;2023-04-15T02:46:23;57.42;;;30.90;;
22138;SDS011;25815;52.582;13.408;2023-04-15T02:48:49;58.05;;;31.75;;
22138;SDS011;25815;52.582;13.408;2023-04-15T02:51:16;57.03;;;31.20;;
22138;SDS011;25815;52.582;13.408;2023-04-15T02:53:43;63.88;;;31.98;;
22138;SDS011;25815;52.582;13.408;2023-04-15T02:56:10;61.65;;;32.15;;
22138;SDS011;25815;52.582;13.408;2023-04-15T02:58:36;58.17;;;30.88;;
22138;SDS011;25815;52.582;13.408;2023-04-15T03:01:02;55.33;;;30.40;;
22138;SDS011;25815;52.582;13.408;2023-04-15T03:03:28;61.05;;;31.23;;
22138;SDS011;25815;52.582;13.408;2023-04-15T03:05:54;56.00;;;29.70;;
22138;SDS011;25815;52.582;13.408;2023-04-15T03:08:20;60.33;;;30.08;;
22138;SDS011;25815;52.582;13.408;2023-04-15T03:10:46;55.35;;;29.42;;
22138;SDS011;25815;52.582;13.408;2023-04-15T03:13:12;55.58;;;30.52;;
22138;SDS011;25815;52.582;13.408;2023-04-15T03:15:38;56.78;;;29.35;;
22138;SDS011;25815;52.582;13.408;2023-04-15T03:18:04;57.35;;;29.95;;
22138;SDS011;25815;52.582;13.408;2023-04-15T03:20:30;54.15;;;30.02;;
22138;SDS011;25815;52.582;13.408;2023-04-15T03:22:56;53.08;;;29.45;;
22138;SDS011;25815;52.582;13.408;2023-04-15T03:25:22;55.35;;;30.38;;
22138;SDS011;25815;52.582;13.408;2023-04-15T03:27:48;56.03;;;29.30;;
22138;SDS011;25815;52.582;13.408;2023-04-15T03:30:14;54.72;;;28.10;;
22138;SDS011;25815;52.582;13.408;2023-04-15T03:32:40;55.83;;;29.33;;
22138;SDS011;25815;52.582;13.408;2023-04-15T03:35:06;54.70;;;27.70;;
22138;SDS011;25815;52.582;13.408;2023-04-15T03:37:32;49.78;;;28.38;;
22138;SDS011;25815;52.582;13.408;2023-04-15T03:39:58;49.85;;;27.45;;
22138;SDS011;25815;52.582;13.408;2023-04-15T03:42:24;53.22;;;29.17;;
22138;SDS011;25815;52.582;13.408;2023-04-15T03:44:50;50.40;;;28.48;;
22138;SDS011;25815;52.582;13.408;2023-04-15T03:47:16;51.20;;;28.88;;
22138;SDS011;25815;52.582;13.408;2023-04-15T03:49:42;53.55;;;29.77;;
22138;SDS011;25815;52.582;13.408;2023-04-15T03:52:08;50.70;;;28.77;;
22138;SDS011;25815;52.582;13.408;2023-04-15T03:54:34;53.22;;;29.25;;
22138;SDS011;25815;52.582;13.408;2023-04-15T03:57:00;49.35;;;27.88;;
22138;SDS011;25815;52.582;13.408;2023-04-15T03:59:26;49.80;;;27.80;;
22138;SDS011;25815;52.582;13.408;2023-04-15T04:01:52;51.22;;;28.08;;
22138;SDS011;25815;52.582;13.408;2023-04-15T04:04:18;49.35;;;27.27;;
22138;SDS011;25815;52.582;13.408;2023-04-15T04:06:44;52.17;;;27.70;;
22138;SDS011;25815;52.582;13.408;2023-04-15T04:09:10;45.67;;;26.70;;
22138;SDS011;25815;52.582;13.408;2023-04-15T04:11:36;46.22;;;26.17;;
22138;SDS011;25815;52.582;13.408;2023-04-15T04:14:02;51.47;;;28.00;;
22138;SDS011;25815;52.582;13.408;2023-04-15T04:16:28;46.03;;;27.02;;
22138;SDS011;25815;52.582;13.408;2023-04-15T04:18:54;45.05;;;26.48;;
22138;SDS011;25815;52.582;13.408;2023-04-15T04:21:20;47.80;;;26.98;;
22138;SDS011;25815;52.582;13.408;2023-04-15T04:23:46;43.28;;;26.67;;
22138;SDS011;25815;52.582;13.408;2023-04-15T04:26:12;44.63;;;25.50;;
22138;SDS011;25815;52.582;13.408;2023-04-15T04:28:38;43.95;;;25.20;;
22138;SDS011;25815;52.582;13.408;2023-04-15T04:31:05;44.15;;;26.15;;
22138;SDS011;25815;52.582;13.408;2023-04-15T04:33:31;42.83;;;25.83;;
22138;SDS011;25815;52.582;13.408;2023-04-15T04:35:57;49.13;;;26.88;;
22138;SDS011;25815;52.582;13.408;2023-04-15T04:38:23;44.58;;;25.10;;
22138;SDS011;25815;52.582;13.408;2023-04-15T04:40:49;46.60;;;26.48;;
22138;SDS011;25815;52.582;13.408;2023-04-15T04:43:15;44.05;;;24.65;;
22138;SDS011;25815;52.582;13.408;2023-04-15T04:45:41;47.47;;;26.27;;
22138;SDS011;25815;52.582;13.408;2023-04-15T04:48:07;46.53;;;26.27;;
22138;SDS011;25815;52.582;13.408;2023-04-15T04:50:34;43.92;;;25.52;;
22138;SDS011;25815;52.582;13.408;2023-04-15T04:53:00;41.70;;;25.33;;
22138;SDS011;25815;52.582;13.408;2023-04-15T04:55:26;44.50;;;27.05;;
22138;SDS011;25815;52.582;13.408;2023-04-15T04:57:52;41.10;;;25.75;;
22138;SDS011;25815;52.582;13.408;2023-04-15T05:00:18;41.83;;;25.05;;
22138;SDS011;25815;52.582;13.408;2023-04-15T05:02:45;40.03;;;24.90;;
22138;SDS011;25815;52.582;13.408;2023-04-15T05:05:11;42.28;;;25.52;;
22138;SDS011;25815;52.582;13.408;2023-04-15T05:07:37;37.25;;;23.95;;
22138;SDS011;25815;52.582;13.408;2023-04-15T05:10:03;39.95;;;24.75;;
22138;SDS011;25815;52.582;13.408;2023-04-15T05:12:29;40.58;;;24.88;;
22138;SDS011;25815;52.582;13.408;2023-04-15T05:14:56;38.47;;;23.05;;
22138;SDS011;25815;52.582;13.408;2023-04-15T05:17:22;37.45;;;24.50;;
22138;SDS011;25815;52.582;13.408;2023-04-15T05:19:48;36.20;;;23.50;;
22138;SDS011;25815;52.582;13.408;2023-04-15T05:22:14;38.60;;;23.08;;
22138;SDS011;25815;52.582;13.408;2023-04-15T05:24:40;38.50;;;24.63;;
22138;SDS011;25815;52.582;13.408;2023-04-15T05:27:06;35.83;;;23.85;;
22138;SDS011;25815;52.582;13.408;2023-04-15T05:29:34;37.38;;;23.23;;
22138;SDS011;25815;52.582;13.408;2023-04-15T05:32:00;34.67;;;22.92;;
22138;SDS011;25815;52.582;13.408;2023-04-15T05:34:26;39.85;;;23.90;;
22138;SDS011;25815;52.582;13.408;2023-04-15T05:36:52;35.15;;;22.55;;
22138;SDS011;25815;52.582;13.408;2023-04-15T05:39:18;38.95;;;23.60;;
22138;SDS011;25815;52.582;13.408;2023-04-15T05:41:44;35.60;;;23.15;;
22138;SDS011;25815;52.582;13.408;2023-04-15T05:44:10;35.03;;;22.42;;
22138;SDS011;25815;52.582;13.408;2023-04-15T05:46:36;35.08;;;21.98;;
22138;SDS011;25815;52.582;13.408;2023-04-15T05:49:02;35.65;;;22.20;;
22138;SDS011;25815;52.582;13.408;2023-04-15T05:51:28;34.50;;;22.63;;
22138;SDS011;25815;52.582;13.408;2023-04-15T05:53:54;36.65;;;22.92;;
22138;SDS011;25815;52.582;13.408;2023-04-15T05:56:20;34.45;;;22.92;;
22138;SDS011;25815;52.582;13.408;2023-04-15T05:58:46;34.33;;;22.10;;
22138;SDS011;25815;52.582;13.408;2023-04-15T06:01:12;34.72;;;21.67;;
22138;SDS011;25815;52.582;13.408;2023-04-15T06:03:38;35.03;;;22.42;;
22138;SDS011;25815;52.582;13.408;2023-04-15T06:06:04;32.55;;;20.70;;
22138;SDS011;25815;52.582;13.408;2023-04-15T06:08:30;33.85;;;20.98;;
22138;SDS011;25815;52.582;13.408;2023-04-15T06:10:57;29.17;;;20.27;;
22138;SDS011;25815;52.582;13.408;2023-04-15T06:13:23;30.38;;;20.95;;
22138;SDS011;25815;52.582;13.408;2023-04-15T06:15:49;34.05;;;20.40;;
22138;SDS011;25815;52.582;13.408;2023-04-15T06:18:14;30.90;;;19.80;;
22138;SDS011;25815;52.582;13.408;2023-04-15T06:20:40;31.58;;;20.50;;
22138;SDS011;25815;52.582;13.408;2023-04-15T06:23:06;27.08;;;19.67;;
22138;SDS011;25815;52.582;13.408;2023-04-15T06:25:32;27.77;;;19.70;;
22138;SDS011;25815;52.582;13.408;2023-04-15T06:27:58;31.15;;;20.52;;
22138;SDS011;25815;52.582;13.408;2023-04-15T06:30:24;29.65;;;19.00;;
22138;SDS011;25815;52.582;13.408;2023-04-15T06:32:50;27.50;;;19.67;;
22138;SDS011;25815;52.582;13.408;2023-04-15T06:35:16;26.70;;;18.10;;
22138;SDS011;25815;52.582;13.408;2023-04-15T06:37:42;25.30;;;18.35;;
22138;SDS011;25815;52.582;13.408;2023-04-15T06:40:08;26.02;;;18.48;;
22138;SDS011;25815;52.582;13.408;2023-04-15T06:42:35;25.58;;;17.23;;
22138;SDS011;25815;52.582;13.408;2023-04-15T06:45:02;22.05;;;16.00;;
22138;SDS011;25815;52.582;13.408;2023-04-15T06:47:28;25.40;;;17.92;;
22138;SDS011;25815;52.582;13.408;2023-04-15T06:49:54;23.77;;;16.63;;
22138;SDS011;25815;52.582;13.408;2023-04-15T06:52:19;23.38;;;16.52;;
22138;SDS011;25815;52.582;13.408;2023-04-15T06:54:46;21.77;;;15.75;;
22138;SDS011;25815;52.582;13.408;2023-04-15T06:57:11;22.70;;;16.02;;
22138;SDS011;25815;52.582;13.408;2023-04-15T06:59:37;19.02;;;15.35;;
22138;SDS011;25815;52.582;13.408;2023-04-15T07:02:03;23.52;;;14.70;;
22138;SDS011;25815;52.582;13.408;2023-04-15T07:04:30;19.33;;;14.38;;
22138;SDS011;25815;52.582;13.408;2023-04-15T07:06:56;20.45;;;14.70;;
22138;SDS011;25815;52.582;13.408;2023-04-15T07:09:22;19.75;;;13.82;;
22138;SDS011;25815;52.582;13.408;2023-04-15T07:11:49;19.27;;;13.85;;
22138;SDS011;25815;52.582;13.408;2023-04-15T07:14:15;20.83;;;14.13;;
22138;SDS011;25815;52.582;13.408;2023-04-15T07:16:41;17.10;;;12.77;;
22138;SDS011;25815;52.582;13.408;2023-04-15T07:19:07;18.73;;;13.40;;
22138;SDS011;25815;52.582;13.408;2023-04-15T07:21:33;16.58;;;13.18;;
22138;SDS011;25815;52.582;13.408;2023-04-15T07:23:59;17.60;;;12.88;;
22138;SDS011;25815;52.582;13.408;2023-04-15T07:26:25;18.58;;;12.73;;
22138;SDS011;25815;52.582;13.408;2023-04-15T07:28:51;17.90;;;13.38;;
22138;SDS011;25815;52.582;13.408;2023-04-15T07:31:17;16.58;;;13.25;;
22138;SDS011;25815;52.582;13.408;2023-04-15T07:33:43;20.10;;;13.25;;
22138;SDS011;25815;52.582;13.408;2023-04-15T07:36:09;18.50;;;12.95;;
22138;SDS011;25815;52.582;13.408;2023-04-15T07:38:35;18.40;;;12.93;;
22138;SDS011;25815;52.582;13.408;2023-04-15T07:41:01;15.13;;;12.57;;
22138;SDS011;25815;52.582;13.408;2023-04-15T07:43:27;17.70;;;13.00;;
22138;SDS011;25815;52.582;13.408;2023-04-15T07:45:54;16.70;;;12.90;;
22138;SDS011;25815;52.582;13.408;2023-04-15T07:48:20;18.08;;;12.32;;
22138;SDS011;25815;52.582;13.408;2023-04-15T07:50:46;15.45;;;12.45;;
22138;SDS011;25815;52.582;13.408;2023-04-15T07:53:11;17.98;;;13.13;;
22138;SDS011;25815;52.582;13.408;2023-04-15T07:55:38;19.23;;;13.13;;
22138;SDS011;25815;52.582;13.408;2023-04-15T07:58:04;18.25;;;13.20;;
22138;SDS011;25815;52.582;13.408;2023-04-15T08:00:30;17.90;;;13.68;;
22138;SDS011;25815;52.582;13.408;2023-04-15T08:02:56;19.85;;;13.48;;
22138;SDS011;25815;52.582;13.408;2023-04-15T08:05:23;16.10;;;12.68;;
22138;SDS011;25815;52.582;13.408;2023-04-15T08:07:49;18.50;;;13.30;;
22138;SDS011;25815;52.582;13.408;2023-04-15T08:10:15;15.45;;;12.52;;
22138;SDS011;25815;52.582;13.408;2023-04-15T08:12:41;16.55;;;13.50;;
22138;SDS011;25815;52.582;13.408;2023-04-15T08:15:08;17.85;;;13.48;;
22138;SDS011;25815;52.582;13.408;2023-04-15T08:17:34;16.85;;;14.18;;
22138;SDS011;25815;52.582;13.408;2023-04-15T08:19:59;18.77;;;13.25;;
22138;SDS011;25815;52.582;13.408;2023-04-15T08:22:25;15.43;;;12.95;;
22138;SDS011;25815;52.582;13.408;2023-04-15T08:24:52;16.83;;;13.10;;
22138;SDS011;25815;52.582;13.408;2023-04-15T08:27:18;18.23;;;12.45;;
22138;SDS011;25815;52.582;13.408;2023-04-15T08:29:44;18.50;;;13.45;;
22138;SDS011;25815;52.582;13.408;2023-04-15T08:32:10;17.40;;;13.80;;
22138;SDS011;25815;52.582;13.408;2023-04-15T08:34:36;16.85;;;12.98;;
22138;SDS011;25815;52.582;13.408;2023-04-15T08:37:02;18.10;;;13.25;;
22138;SDS011;25815;52.582;13.408;2023-04-15T08:39:28;18.25;;;13.38;;
22138;SDS011;25815;52.582;13.408;2023-04-15T08:41:55;19.65;;;13.63;;
22138;SDS011;25815;52.582;13.408;2023-04-15T08:46:50;16.45;;;13.38;;
22138;SDS011;25815;52.582;13.408;2023-04-15T08:49:16;17.15;;;13.20;;
22138;SDS011;25815;52.582;13.408;2023-04-15T08:51:43;18.90;;;14.63;;
22138;SDS011;25815;52.582;13.408;2023-04-15T08:54:10;17.05;;;13.85;;
22138;SDS011;25815;52.582;13.408;2023-04-15T08:56:37;18.45;;;13.82;;
22138;SDS011;25815;52.582;13.408;2023-04-15T08:59:03;18.08;;;13.75;;
22138;SDS011;25815;52.582;13.408;2023-04-15T09:01:30;18.65;;;14.18;;
22138;SDS011;25815;52.582;13.408;2023-04-15T09:03:56;19.08;;;13.88;;
22138;SDS011;25815;52.582;13.408;2023-04-15T09:06:23;19.95;;;13.98;;
22138;SDS011;25815;52.582;13.408;2023-04-15T09:08:50;16.55;;;13.45;;
22138;SDS011;25815;52.582;13.408;2023-04-15T09:11:16;17.67;;;13.73;;
22138;SDS011;25815;52.582;13.408;2023-04-15T09:13:43;17.40;;;14.20;;
22138;SDS011;25815;52.582;13.408;2023-04-15T09:16:09;16.27;;;13.23;;
22138;SDS011;25815;52.582;13.408;2023-04-15T09:18:35;19.17;;;13.27;;
22138;SDS011;25815;52.582;13.408;2023-04-15T09:21:08;16.85;;;13.63;;
22138;SDS011;25815;52.582;13.408;2023-04-15T09:23:35;17.42;;;13.65;;
22138;SDS011;25815;52.582;13.408;2023-04-15T09:26:01;15.70;;;12.70;;
22138;SDS011;25815;52.582;13.408;2023-04-15T09:28:28;15.50;;;13.13;;
22138;SDS011;25815;52.582;13.408;2023-04-15T09:30:54;16.70;;;12.52;;
22138;SDS011;25815;52.582;13.408;2023-04-15T09:33:21;17.05;;;13.23;;
22138;SDS011;25815;52.582;13.408;2023-04-15T09:35:55;18.10;;;12.98;;
22138;SDS011;25815;52.582;13.408;2023-04-15T09:38:21;15.95;;;13.00;;
22138;SDS011;25815;52.582;13.408;2023-04-15T09:40:47;15.68;;;12.57;;
22138;SDS011;25815;52.582;13.408;2023-04-15T09:43:13;14.70;;;12.48;;
22138;SDS011;25815;52.582;13.408;2023-04-15T09:45:46;16.27;;;12.60;;
22138;SDS011;25815;52.582;13.408;2023-04-15T09:48:16;13.52;;;12.10;;
22138;SDS011;25815;52.582;13.408;2023-04-15T09:50:43;17.75;;;12.40;;
22138;SDS011;25815;52.582;13.408;2023-04-15T09:53:09;14.98;;;11.93;;
22138;SDS011;25815;52.582;13.408;2023-04-15T09:55:36;16.85;;;13.13;;
22138;SDS011;25815;52.582;13.408;2023-04-15T09:58:07;16.20;;;13.40;;
22138;SDS011;25815;52.582;13.408;2023-04-15T10:00:34;18.75;;;13.77;;
22138;SDS011;25815;52.582;13.408;2023-04-15T10:03:00;16.00;;;13.00;;
22138;SDS011;25815;52.582;13.408;2023-04-15T10:05:27;16.98;;;13.07;;
22138;SDS011;25815;52.582;13.408;2023-04-15T10:07:54;19.00;;;13.32;;
22138;SDS011;25815;52.582;13.408;2023-04-15T10:10:20;17.83;;;13.05;;
22138;SDS011;25815;52.582;13.408;2023-04-15T10:12:46;15.55;;;12.32;;
22138;SDS011;25815;52.582;13.408;2023-04-15T10:15:14;17.63;;;13.07;;
22138;SDS011;25815;52.582;13.408;2023-04-15T10:17:40;17.95;;;13.20;;
22138;SDS011;25815;52.582;13.408;2023-04-15T10:20:08;15.63;;;12.18;;
22138;SDS011;25815;52.582;13.408;2023-04-15T10:22:36;16.05;;;12.57;;
22138;SDS011;25815;52.582;13.408;2023-04-15T10:25:02;15.50;;;12.93;;
22138;SDS011;25815;52.582;13.408;2023-04-15T10:27:29;14.60;;;12.57;;
22138;SDS011;25815;52.582;13.408;2023-04-15T10:29:55;16.88;;;13.93;;
22138;SDS011;25815;52.582;13.408;2023-04-15T10:32:21;15.93;;;12.90;;
22138;SDS011;25815;52.582;13.408;2023-04-15T10:34:48;16.00;;;12.98;;
22138;SDS011;25815;52.582;13.408;2023-04-15T10:37:22;15.60;;;13.00;;
22138;SDS011;25815;52.582;13.408;2023-04-15T10:39:57;18.27;;;12.38;;
22138;SDS011;25815;52.582;13.408;2023-04-15T10:42:23;15.88;;;13.73;;
22138;SDS011;25815;52.582;13.408;2023-04-15T10:44:50;17.02;;;13.10;;
22138;SDS011;25815;52.582;13.408;2023-04-15T10:47:17;18.27;;;14.18;;
22138;SDS011;25815;52.582;13.408;2023-04-15T10:52:13;16.05;;;13.63;;
22138;SDS011;25815;52.582;13.408;2023-04-15T10:54:40;17.48;;;13.57;;
22138;SDS011;25815;52.582;13.408;2023-04-15T10:59:36;17.27;;;13.13;;
22138;SDS011;25815;52.582;13.408;2023-04-15T11:02:06;16.65;;;12.63;;
22138;SDS011;25815;52.582;13.408;2023-04-15T11:10:02;30.45;;;14.43;;
22138;SDS011;25815;52.582;13.408;2023-04-15T11:12:35;15.85;;;13.07;;
22138;SDS011;25815;52.582;13.408;2023-04-15T11:17:46;16.17;;;12.52;;
22138;SDS011;25815;52.582;13.408;2023-04-15T11:20:14;16.83;;;13.00;;
22138;SDS011;25815;52.582;13.408;2023-04-15T11:22:47;17.98;;;13.45;;
22138;SDS011;25815;52.582;13.408;2023-04-15T11:25:23;17.55;;;13.20;;
22138;SDS011;25815;52.582;13.408;2023-04-15T11:27:50;15.43;;;12.65;;
22138;SDS011;25815;52.582;13.408;2023-04-15T11:30:17;16.15;;;12.23;;
22138;SDS011;25815;52.582;13.408;2023-04-15T11:32:44;16.27;;;12.18;;
22138;SDS011;25815;52.582;13.408;2023-04-15T11:35:10;15.02;;;11.93;;
22138;SDS011;25815;52.582;13.408;2023-04-15T11:37:36;15.68;;;12.60;;
22138;SDS011;25815;52.582;13.408;2023-04-15T11:40:02;15.52;;;12.27;;
22138;SDS011;25815;52.582;13.408;2023-04-15T11:42:28;15.77;;;12.60;;
22138;SDS011;25815;52.582;13.408;2023-04-15T11:45:05;15.40;;;11.90;;
22138;SDS011;25815;52.582;13.408;2023-04-15T11:47:31;15.23;;;12.02;;
22138;SDS011;25815;52.582;13.408;2023-04-15T11:49:58;15.23;;;11.68;;
22138;SDS011;25815;52.582;13.408;2023-04-15T11:52:38;16.20;;;11.93;;
22138;SDS011;25815;52.582;13.408;2023-04-15T11:55:04;14.48;;;11.77;;
22138;SDS011;25815;52.582;13.408;2023-04-15T11:57:33;16.60;;;11.70;;
22138;SDS011;25815;52.582;13.408;2023-04-15T12:00:00;13.60;;;11.43;;
22138;SDS011;25815;52.582;13.408;2023-04-15T12:02:35;26.27;;;12.88;;
22138;SDS011;25815;52.582;13.408;2023-04-15T12:05:04;16.02;;;11.60;;
22138;SDS011;25815;52.582;13.408;2023-04-15T12:07:30;16.02;;;11.85;;
22138;SDS011;25815;52.582;13.408;2023-04-15T12:09:57;15.32;;;12.07;;
22138;SDS011;25815;52.582;13.408;2023-04-15T12:12:26;13.77;;;11.95;;
22138;SDS011;25815;52.582;13.408;2023-04-15T12:14:52;15.02;;;12.52;;
22138;SDS011;25815;52.582;13.408;2023-04-15T12:17:19;15.88;;;12.02;;
22138;SDS011;25815;52.582;13.408;2023-04-15T12:19:45;18.55;;;13.13;;
22138;SDS011;25815;52.582;13.408;2023-04-15T12:22:13;17.40;;;13.52;;
22138;SDS011;25815;52.582;13.408;2023-04-15T12:24:40;21.77;;;13.15;;
22138;SDS011;25815;52.582;13.408;2023-04-15T12:27:09;17.20;;;13.43;;
22138;SDS011;25815;52.582;13.408;2023-04-15T12:29:36;18.70;;;13.65;;
22138;SDS011;25815;52.582;13.408;2023-04-15T12:34:41;14.20;;;12.02;;
22138;SDS011;25815;52.582;13.408;2023-04-15T12:37:09;17.67;;;12.40;;
22138;SDS011;25815;52.582;13.408;2023-04-15T12:39:35;17.98;;;13.63;;
22138;SDS011;25815;52.582;13.408;2023-04-15T12:42:02;20.88;;;13.93;;
22138;SDS011;25815;52.582;13.408;2023-04-15T12:44:29;19.23;;;14.05;;
22138;SDS011;25815;52.582;13.408;2023-04-15T12:46:55;18.17;;;13.82;;
22138;SDS011;25815;52.582;13.408;2023-04-15T12:49:21;16.83;;;13.48;;
22138;SDS011;25815;52.582;13.408;2023-04-15T12:51:48;17.08;;;12.23;;
22138;SDS011;25815;52.582;13.408;2023-04-15T12:54:15;15.35;;;12.40;;
22138;SDS011;25815;52.582;13.408;2023-04-15T12:56:41;16.85;;;12.68;;
22138;SDS011;25815;52.582;13.408;2023-04-15T12:59:07;16.13;;;12.77;;
22138;SDS011;25815;52.582;13.408;2023-04-15T13:01:33;15.75;;;12.13;;
22138;SDS011;25815;52.582;13.408;2023-04-15T13:03:59;13.77;;;11.52;;
22138;SDS011;25815;52.582;13.408;2023-04-15T13:06:25;14.23;;;11.93;;
22138;SDS011;25815;52.582;13.408;2023-04-15T13:08:53;15.25;;;11.68;;
22138;SDS011;25815;52.582;13.408;2023-04-15T13:11:19;14.40;;;11.27;;
22138;SDS011;25815;52.582;13.408;2023-04-15T13:13:45;13.32;;;11.02;;
22138;SDS011;25815;52.582;13.408;2023-04-15T13:16:11;13.55;;;10.55;;
22138;SDS011;25815;52.582;13.408;2023-04-15T13:18:37;14.07;;;10.88;;
22138;SDS011;25815;52.582;13.408;2023-04-15T13:21:03;14.32;;;10.80;;
22138;SDS011;25815;52.582;13.408;2023-04-15T13:23:31;13.00;;;10.73;;
22138;SDS011;25815;52.582;13.408;2023-04-15T13:25:57;15.00;;;11.52;;
22138;SDS011;25815;52.582;13.408;2023-04-15T13:28:23;15.45;;;11.48;;
22138;SDS011;25815;52.582;13.408;2023-04-15T13:30:49;17.98;;;11.70;;
22138;SDS011;25815;52.582;13.408;2023-04-15T13:33:16;13.65;;;11.43;;
22138;SDS011;25815;52.582;13.408;2023-04-15T13:35:42;18.15;;;12.05;;
22138;SDS011;25815;52.582;13.408;2023-04-15T13:38:08;15.95;;;12.40;;
22138;SDS011;25815;52.582;13.408;2023-04-15T13:40:34;15.80;;;12.32;;
22138;SDS011;25815;52.582;13.408;2023-04-15T13:43:00;17.98;;;13.00;;
22138;SDS011;25815;52.582;13.408;2023-04-15T13:45:27;16.35;;;13.25;;
22138;SDS011;25815;52.582;13.408;2023-04-15T13:47:54;16.15;;;12.88;;
22138;SDS011;25815;52.582;13.408;2023-04-15T13:50:20;17.27;;;13.15;;
22138;SDS011;25815;52.582;13.408;2023-04-15T13:52:46;17.13;;;12.93;;
22138;SDS011;25815;52.582;13.408;2023-04-15T13:55:12;14.65;;;12.40;;
22138;SDS011;25815;52.582;13.408;2023-04-15T13:57:38;14.02;;;12.10;;
22138;SDS011;25815;52.582;13.408;2023-04-15T14:00:04;14.45;;;12.02;;
22138;SDS011;25815;52.582;13.408;2023-04-15T14:02:30;15.40;;;12.38;;
22138;SDS011;25815;52.582;13.408;2023-04-15T14:04:56;15.80;;;12.45;;
22138;SDS011;25815;52.582;13.408;2023-04-15T14:07:22;15.77;;;12.07;;
22138;SDS011;25815;52.582;13.408;2023-04-15T14:09:48;17.95;;;12.48;;
22138;SDS011;25815;52.582;13.408;2023-04-15T14:12:14;14.75;;;12.85;;
22138;SDS011;25815;52.582;13.408;2023-04-15T14:14:40;15.30;;;12.38;;
22138;SDS011;25815;52.582;13.408;2023-04-15T14:17:06;16.27;;;12.35;;
22138;SDS011;25815;52.582;13.408;2023-04-15T14:19:32;14.90;;;11.55;;
22138;SDS011;25815;52.582;13.408;2023-04-15T14:21:58;13.10;;;11.02;;